KGPH

Midwest National Air Center Airport

Mosby, Missouri, USA
METAR KGPH 222135Z AUTO 30003KT 10SM CLR 22/07 A3012 RMK AO2
Observed Flight Rules
Oct-22 @ 21:35 UTC (11 minutes ago) Visual Flight Rules
Wind Visibility Clouds
300° at 3 knots 10 miles
  • Clear skies
Temperatures Readings
Current 22°C / 72°F
Dewpoint 7°C / 45°F
Humidity 38%
Altimeter 30.12" Hg
Pressure 1020 hPa
Elevation 235
METAR KGPH 222135Z AUTO 30003KT 10SM CLR 22/07 A3012 RMK AO2
Observed Flight Rules
Oct-22 @ 21:35 UTC
(11 minutes ago)
VFR
Wind Visibility
300° at 3 knots 10 miles
Clouds
  • Clear skies
Temperature Dewpoint
22°C / 72°F 7°C / 45°F
Humidity Altimeter Pressure
38% 30.12" Hg 1020 hPa